Time;durP1;ratioP1;P1;durP2;ratioP2;P2;SDS_P1;SDS_P2;PMS_P1;PMS_P2;Temp;Humidity;BMP_temperature;BMP_pressure;BME280_temperature;BME280_humidity;BME280_pressure;Samples;Min_cycle;Max_cycle;Signal;HPM_P1;HPM_P2
2023/08/08 00:01:42;;;;;;;0.40;0.40;;;;;;;16.51;59.10;99568.78;4444360;32;33021;-91
2023/08/08 00:04:12;;;;;;;1.15;0.60;;;;;;;16.51;58.91;99571.41;4444489;32;34286;-92
2023/08/08 00:06:40;;;;;;;0.40;0.40;;;;;;;16.67;58.83;99571.63;4447434;32;32258;-94
2023/08/08 00:09:09;;;;;;;0.40;0.40;;;;;;;16.82;58.32;99572.81;4442728;32;33318;-92
2023/08/08 00:11:38;;;;;;;0.40;0.40;;;;;;;16.66;58.66;99574.31;4445613;32;33359;-90
2023/08/08 00:14:07;;;;;;;0.45;0.45;;;;;;;16.78;58.17;99572.09;4445602;32;33374;-91
2023/08/08 00:16:36;;;;;;;0.43;0.43;;;;;;;16.96;57.82;99578.34;4442964;32;33721;-93
2023/08/08 00:19:06;;;;;;;0.45;0.45;;;;;;;16.79;58.65;99575.53;4453126;32;33052;-92
2023/08/08 00:21:35;;;;;;;0.40;0.40;;;;;;;16.89;58.34;99574.28;4443127;32;32798;-92
2023/08/08 00:24:04;;;;;;;0.40;0.40;;;;;;;16.71;58.83;99580.22;4446923;32;33605;-92
2023/08/08 00:26:33;;;;;;;0.40;0.40;;;;;;;16.80;58.52;99585.12;4448974;32;34421;-91
2023/08/08 00:29:01;;;;;;;0.40;0.40;;;;;;;16.73;58.86;99575.78;4440946;32;33659;-90
2023/08/08 00:31:30;;;;;;;0.62;0.55;;;;;;;16.75;58.78;99579.19;4432249;32;33139;-91
2023/08/08 00:34:02;;;;;;;0.62;0.50;;;;;;;16.62;59.28;99574.44;4436932;32;33767;-91
2023/08/08 00:36:32;;;;;;;0.40;0.40;;;;;;;16.68;59.32;99581.19;4447689;32;33342;-91
2023/08/08 00:39:01;;;;;;;0.50;0.50;;;;;;;16.50;59.63;99574.06;4447626;32;33652;-90
2023/08/08 00:41:30;;;;;;;1.50;0.68;;;;;;;16.58;59.49;99572.84;4445655;32;32981;-90
2023/08/08 00:43:58;;;;;;;0.40;0.40;;;;;;;16.48;59.82;99575.88;4444109;32;33509;-91
2023/08/08 00:46:28;;;;;;;1.92;0.55;;;;;;;16.25;60.31;99567.16;4445707;32;34756;-92
2023/08/08 00:48:56;;;;;;;0.40;0.40;;;;;;;16.06;60.96;99579.25;4446438;32;33820;-92
2023/08/08 00:51:25;;;;;;;0.50;0.50;;;;;;;15.91;61.49;99581.53;4447963;32;32886;-90
2023/08/08 00:53:57;;;;;;;0.50;0.50;;;;;;;15.88;61.49;99580.78;4432274;32;33608;-92
2023/08/08 00:56:26;;;;;;;0.50;0.50;;;;;;;15.88;61.58;99583.41;4441503;32;34045;-93
2023/08/08 00:58:55;;;;;;;0.50;0.50;;;;;;;15.99;61.75;99586.47;4445641;32;36445;-91
2023/08/08 01:01:24;;;;;;;0.57;0.57;;;;;;;16.31;60.52;99587.88;4450185;32;32932;-91
2023/08/08 01:03:53;;;;;;;0.43;0.43;;;;;;;16.23;60.80;99578.59;4450585;32;33643;-93
2023/08/08 01:06:29;;;;;;;0.50;0.50;;;;;;;16.35;60.45;99581.59;4446344;32;33987;-91
2023/08/08 01:09:02;;;;;;;0.80;0.60;;;;;;;16.38;60.68;99581.50;4444484;32;33873;-92
2023/08/08 01:11:34;;;;;;;0.50;0.50;;;;;;;16.25;60.93;99585.50;4439534;32;33690;-91
2023/08/08 01:14:04;;;;;;;0.47;0.47;;;;;;;16.28;60.62;99580.13;4452424;32;34392;-92
2023/08/08 01:16:34;;;;;;;0.60;0.60;;;;;;;16.00;61.93;99578.56;4445662;32;34775;-91
2023/08/08 01:19:03;;;;;;;0.60;0.60;;;;;;;15.99;61.85;99576.88;4432254;32;33775;-91
2023/08/08 01:21:36;;;;;;;0.40;0.40;;;;;;;15.98;61.95;99584.78;4432067;32;33299;-92
2023/08/08 01:24:17;;;;;;;0.80;0.80;;;;;;;15.81;62.82;99581.94;4431677;32;33101;-92
2023/08/08 01:26:47;;;;;;;2.08;0.60;;;;;;;16.12;61.79;99582.50;4452118;32;34697;-91
2023/08/08 01:29:16;;;;;;;0.50;0.50;;;;;;;16.10;61.51;99588.69;4444385;32;33440;-91
2023/08/08 01:31:47;;;;;;;;;;;;;;;16.02;62.21;99582.87;4447227;32;34119;-93
2023/08/08 01:34:15;;;;;;;0.60;0.60;;;;;;;15.93;62.44;99581.47;4447364;32;34414;-92
2023/08/08 01:36:50;;;;;;;0.55;0.50;;;;;;;15.77;63.01;99579.41;4452875;32;33862;-92
2023/08/08 01:39:28;;;;;;;0.65;0.62;;;;;;;15.87;62.68;99573.84;4452836;32;33470;-92
2023/08/08 01:41:58;;;;;;;0.93;0.80;;;;;;;16.00;62.39;99570.72;4438690;32;33275;-92
2023/08/08 01:44:28;;;;;;;0.62;0.55;;;;;;;15.72;63.28;99573.47;4446303;32;33679;-92
2023/08/08 01:46:56;;;;;;;0.60;0.60;;;;;;;15.66;63.79;99576.31;4444118;32;33880;-91
2023/08/08 01:49:25;;;;;;;0.77;0.60;;;;;;;15.57;63.72;99582.69;4451202;32;33939;-91
2023/08/08 01:51:54;;;;;;;0.70;0.68;;;;;;;15.65;63.68;99585.03;4447276;32;33661;-92
2023/08/08 01:54:24;;;;;;;0.50;0.50;;;;;;;15.84;63.06;99584.41;4447091;32;34702;-91
2023/08/08 01:56:53;;;;;;;0.50;0.50;;;;;;;15.84;63.00;99582.66;4439303;32;35355;-92
2023/08/08 01:59:23;;;;;;;0.50;0.50;;;;;;;15.55;64.03;99589.75;4445069;32;34947;-91
2023/08/08 02:01:52;;;;;;;0.73;0.73;;;;;;;15.56;64.13;99585.41;4448674;32;34116;-91
2023/08/08 02:04:21;;;;;;;0.95;0.95;;;;;;;15.67;63.98;99596.31;4445123;32;32675;-92
2023/08/08 02:06:50;;;;;;;0.70;0.70;;;;;;;15.84;63.61;99587.03;4443405;32;34099;-93
2023/08/08 02:09:18;;;;;;;0.50;0.50;;;;;;;15.80;63.19;99588.91;4444471;32;33290;-91
2023/08/08 02:11:51;;;;;;;0.60;0.60;;;;;;;15.64;63.94;99588.56;4448368;32;33708;-92
2023/08/08 02:14:20;;;;;;;0.60;0.60;;;;;;;15.49;64.39;99589.97;4438366;32;33994;-91
2023/08/08 02:16:49;;;;;;;0.95;0.70;;;;;;;15.70;63.74;99588.38;4446700;32;33561;-92
2023/08/08 02:19:17;;;;;;;0.43;0.43;;;;;;;15.51;64.39;99593.41;4452017;32;33639;-90
2023/08/08 02:21:46;;;;;;;0.50;0.50;;;;;;;15.63;64.10;99586.84;4451917;32;34027;-91
2023/08/08 02:24:19;;;;;;;1.15;1.05;;;;;;;15.52;64.23;99589.00;4452369;32;34326;-93
2023/08/08 02:26:48;;;;;;;0.60;0.60;;;;;;;15.04;66.10;99590.63;4447135;32;34759;-93
2023/08/08 02:29:18;;;;;;;0.60;0.60;;;;;;;15.05;66.12;99586.25;4447770;32;33667;-92
2023/08/08 02:31:47;;;;;;;0.70;0.70;;;;;;;15.31;65.25;99596.69;4446377;32;33094;-93
2023/08/08 02:34:16;;;;;;;0.60;0.60;;;;;;;15.13;65.92;99589.47;4436852;32;33966;-92
2023/08/08 02:36:45;;;;;;;0.70;0.70;;;;;;;14.86;66.84;99586.88;4430800;32;34556;-91
2023/08/08 02:39:13;;;;;;;0.60;0.60;;;;;;;14.85;67.05;99595.59;4447891;32;33535;-91
2023/08/08 02:41:42;;;;;;;0.50;0.50;;;;;;;14.88;66.92;99603.34;4446496;32;33295;-92
2023/08/08 02:44:11;;;;;;;0.55;0.55;;;;;;;14.97;66.95;99599.56;4452228;32;33854;-94
2023/08/08 02:46:42;;;;;;;0.50;0.50;;;;;;;15.13;66.29;99602.53;4446211;32;33555;-93
2023/08/08 02:49:11;;;;;;;0.50;0.50;;;;;;;15.07;66.27;99614.03;4445950;32;32922;-92
2023/08/08 02:51:40;;;;;;;0.57;0.57;;;;;;;15.12;66.27;99611.25;4445278;32;33378;-93
2023/08/08 02:54:09;;;;;;;0.60;0.60;;;;;;;14.97;66.70;99611.78;4445673;32;34576;-93
2023/08/08 02:56:38;;;;;;;0.50;0.50;;;;;;;15.04;66.51;99619.34;4449772;32;33718;-92
2023/08/08 02:59:07;;;;;;;0.50;0.50;;;;;;;15.12;66.36;99621.72;4445447;32;33513;-92
2023/08/08 03:01:39;;;;;;;0.50;0.50;;;;;;;15.20;66.03;99613.63;4446580;32;33200;-92
2023/08/08 03:04:13;;;;;;;0.50;0.50;;;;;;;15.15;66.01;99614.66;4437858;32;34208;-91
2023/08/08 03:06:42;;;;;;;0.50;0.50;;;;;;;15.01;66.59;99623.84;4447468;32;32159;-90
2023/08/08 03:09:11;;;;;;;0.70;0.70;;;;;;;15.04;66.53;99618.50;4448307;32;33667;-93
2023/08/08 03:11:41;;;;;;;0.60;0.60;;;;;;;14.79;67.23;99621.91;4442160;32;33248;-91
2023/08/08 03:14:10;;;;;;;0.75;0.70;;;;;;;15.03;66.69;99622.00;4448831;32;33030;-92
2023/08/08 03:16:39;;;;;;;0.60;0.60;;;;;;;15.08;66.51;99628.81;4442870;32;34347;-92
2023/08/08 03:19:09;;;;;;;0.75;0.68;;;;;;;15.24;66.02;99633.53;4451018;32;33242;-93
2023/08/08 03:21:39;;;;;;;0.57;0.57;;;;;;;15.18;66.10;99639.81;4429320;32;33385;-90
2023/08/08 03:24:09;;;;;;;0.60;0.60;;;;;;;15.38;65.25;99644.38;4446105;32;33099;-92
2023/08/08 03:26:38;;;;;;;0.50;0.50;;;;;;;15.43;65.04;99649.44;4442379;32;34785;-92
2023/08/08 03:29:09;;;;;;;0.62;0.62;;;;;;;15.32;65.15;99648.06;4448899;32;33551;-91
2023/08/08 03:31:39;;;;;;;0.50;0.50;;;;;;;15.23;65.72;99656.19;4443224;32;32817;-92
2023/08/08 03:34:08;;;;;;;0.50;0.50;;;;;;;15.49;65.08;99657.94;4445916;32;33993;-91
2023/08/08 03:36:37;;;;;;;0.73;0.73;;;;;;;15.52;64.29;99657.00;4442566;32;34448;-91
2023/08/08 03:39:09;;;;;;;0.50;0.50;;;;;;;15.52;64.83;99664.84;4444605;32;33681;-91
2023/08/08 03:41:37;;;;;;;0.50;0.50;;;;;;;15.65;64.63;99665.25;4448286;32;33144;-91
2023/08/08 03:44:06;;;;;;;0.70;0.70;;;;;;;15.86;63.69;99663.69;4445446;32;33846;-92
2023/08/08 03:46:35;;;;;;;0.40;0.40;;;;;;;15.61;64.31;99674.09;4443033;32;34462;-91
2023/08/08 03:49:04;;;;;;;0.60;0.60;;;;;;;15.77;63.49;99668.31;4445299;32;34100;-90
2023/08/08 03:51:33;;;;;;;0.50;0.50;;;;;;;15.73;63.47;99669.38;4449495;32;33809;-91
2023/08/08 03:54:02;;;;;;;0.55;0.55;;;;;;;15.53;63.77;99666.53;4444922;32;33403;-91
2023/08/08 03:56:32;;;;;;;0.65;0.65;;;;;;;15.27;64.56;99667.38;4443995;32;33608;-92
2023/08/08 03:59:01;;;;;;;0.60;0.60;;;;;;;15.33;64.30;99660.22;4445229;32;31361;-91
2023/08/08 04:01:30;;;;;;;0.98;0.65;;;;;;;15.40;64.04;99668.72;4445473;32;33072;-92
2023/08/08 04:03:59;;;;;;;0.62;0.62;;;;;;;15.25;64.37;99680.53;4454887;32;33891;-90
2023/08/08 04:06:28;;;;;;;0.50;0.50;;;;;;;15.19;64.59;99683.31;4442106;32;33445;-93
2023/08/08 04:08:57;;;;;;;0.50;0.50;;;;;;;15.14;64.41;99687.84;4443991;32;32071;-91
2023/08/08 04:11:26;;;;;;;1.37;1.27;;;;;;;15.06;64.91;99688.09;4444219;32;33543;-91
2023/08/08 04:13:56;;;;;;;0.85;0.80;;;;;;;15.27;64.35;99686.56;4450247;32;34047;-93
2023/08/08 04:16:26;;;;;;;1.00;0.90;;;;;;;15.25;64.25;99695.38;4442919;32;34213;-92
2023/08/08 04:18:55;;;;;;;0.52;0.52;;;;;;;15.32;64.06;99702.09;4444398;32;34183;-92
2023/08/08 04:21:25;;;;;;;0.70;0.70;;;;;;;15.55;63.55;99706.56;4442479;32;33024;-91
2023/08/08 04:23:53;;;;;;;0.50;0.50;;;;;;;15.33;63.99;99704.66;4450145;32;33377;-91
2023/08/08 04:26:22;;;;;;;0.57;0.57;;;;;;;15.57;63.38;99709.97;4432394;32;34425;-91
2023/08/08 04:28:51;;;;;;;0.90;0.70;;;;;;;15.56;63.38;99711.75;4444282;32;33519;-91
2023/08/08 04:31:24;;;;;;;0.50;0.50;;;;;;;15.62;62.89;99721.13;4442006;32;33093;-91
2023/08/08 04:33:58;;;;;;;0.50;0.50;;;;;;;15.88;61.65;99720.28;4440729;32;34152;-91
2023/08/08 04:36:29;;;;;;;0.40;0.40;;;;;;;15.94;62.21;99720.06;4451707;32;34604;-92
2023/08/08 04:38:58;;;;;;;1.08;0.82;;;;;;;15.88;61.86;99709.81;4453564;32;34152;-91
2023/08/08 04:41:26;;;;;;;0.57;0.57;;;;;;;16.41;60.25;99711.44;4443592;32;33276;-91
2023/08/08 04:43:55;;;;;;;0.65;0.60;;;;;;;16.52;59.98;99719.75;4443255;32;33390;-91
2023/08/08 04:46:25;;;;;;;0.40;0.40;;;;;;;16.45;59.31;99706.94;4449001;32;32184;-91
2023/08/08 04:48:54;;;;;;;1.77;0.73;;;;;;;16.12;59.61;99715.97;4444445;32;34147;-91
2023/08/08 04:51:24;;;;;;;0.40;0.40;;;;;;;16.18;60.57;99723.56;4443941;32;32882;-92
2023/08/08 04:53:52;;;;;;;0.50;0.50;;;;;;;16.82;58.43;99723.00;4444492;32;34543;-92
2023/08/08 04:56:21;;;;;;;0.40;0.40;;;;;;;16.79;58.51;99727.50;4445474;32;33585;-90
2023/08/08 04:58:50;;;;;;;0.50;0.50;;;;;;;16.90;57.96;99725.34;4450398;32;33827;-91
2023/08/08 05:01:20;;;;;;;0.57;0.57;;;;;;;17.10;57.75;99726.31;4439016;32;33002;-91
2023/08/08 05:03:50;;;;;;;0.60;0.60;;;;;;;17.14;56.74;99726.16;4433174;32;33661;-91
2023/08/08 05:06:23;;;;;;;0.93;0.50;;;;;;;17.64;55.23;99728.47;4444960;32;33806;-91
2023/08/08 05:08:52;;;;;;;0.55;0.50;;;;;;;18.68;52.95;99730.12;4451528;32;33583;-93
2023/08/08 05:11:21;;;;;;;1.35;1.00;;;;;;;19.61;50.14;99728.28;4447012;32;33848;-92
2023/08/08 05:13:50;;;;;;;0.77;0.75;;;;;;;20.54;46.79;99737.59;4446441;32;33419;-91
2023/08/08 05:16:19;;;;;;;1.42;0.82;;;;;;;20.72;46.85;99730.50;4446180;32;33645;-92
2023/08/08 05:18:48;;;;;;;1.20;0.60;;;;;;;21.55;44.53;99735.59;4445497;32;33228;-94
2023/08/08 05:21:18;;;;;;;0.40;0.40;;;;;;;21.57;44.19;99737.19;4449970;32;33701;-92
2023/08/08 05:23:47;;;;;;;0.70;0.40;;;;;;;21.72;44.01;99733.69;4445852;32;33653;-91
2023/08/08 05:26:16;;;;;;;0.30;0.30;;;;;;;21.51;44.91;99732.28;4434529;32;33414;-92
2023/08/08 05:28:45;;;;;;;0.85;0.57;;;;;;;21.73;43.14;99739.81;4439637;32;33066;-93
2023/08/08 05:31:13;;;;;;;0.40;0.40;;;;;;;21.07;45.01;99740.91;4449867;32;33960;-93
2023/08/08 05:33:42;;;;;;;0.50;0.43;;;;;;;20.63;45.11;99734.50;4445200;32;33581;-93
2023/08/08 05:36:11;;;;;;;0.40;0.40;;;;;;;20.64;46.37;99744.13;4443791;32;33579;-91
2023/08/08 05:38:41;;;;;;;0.77;0.75;;;;;;;19.94;47.48;99727.56;4445958;32;33322;-92
2023/08/08 05:41:10;;;;;;;0.30;0.30;;;;;;;19.34;49.56;99738.41;4447511;32;32399;-93
2023/08/08 05:43:39;;;;;;;1.35;0.50;;;;;;;19.40;49.35;99737.25;4451142;32;34500;-93
2023/08/08 05:46:08;;;;;;;0.40;0.37;;;;;;;18.86;50.41;99745.06;4443922;32;34384;-93
2023/08/08 05:48:37;;;;;;;0.30;0.30;;;;;;;18.59;50.91;99747.16;4449024;32;34446;-92
2023/08/08 05:51:06;;;;;;;0.85;0.70;;;;;;;18.68;51.32;99740.66;4443947;32;33816;-91
2023/08/08 05:53:35;;;;;;;1.40;1.15;;;;;;;18.54;51.99;99754.41;4450285;32;33254;-90
2023/08/08 05:56:05;;;;;;;0.40;0.40;;;;;;;18.68;51.84;99759.03;4443826;32;33765;-92
2023/08/08 05:58:36;;;;;;;0.52;0.52;;;;;;;18.86;51.42;99757.37;4445316;32;33644;-92
2023/08/08 06:01:06;;;;;;;0.40;0.40;;;;;;;18.88;50.89;99748.47;4443640;32;34646;-93
2023/08/08 06:03:35;;;;;;;0.30;0.30;;;;;;;18.85;50.72;99745.16;4450213;32;33925;-92
2023/08/08 06:06:06;;;;;;;0.40;0.40;;;;;;;19.16;50.30;99750.69;4442846;32;34002;-93
2023/08/08 06:08:35;;;;;;;0.60;0.60;;;;;;;18.84;50.50;99744.28;4445049;32;33409;-92
2023/08/08 06:11:05;;;;;;;0.30;0.30;;;;;;;18.53;51.50;99750.94;4445718;32;32161;-92
2023/08/08 06:13:33;;;;;;;0.57;0.57;;;;;;;18.31;52.17;99750.16;4445025;32;32840;-90
2023/08/08 06:16:06;;;;;;;0.75;0.50;;;;;;;18.51;51.80;99755.41;4451295;32;33518;-92
2023/08/08 06:18:35;;;;;;;0.40;0.40;;;;;;;18.31;52.54;99758.91;4447629;32;33766;-92
2023/08/08 06:21:04;;;;;;;0.65;0.57;;;;;;;18.11;52.47;99759.75;4446733;32;33447;-90
2023/08/08 06:23:33;;;;;;;0.50;0.50;;;;;;;18.02;53.32;99757.50;4446728;32;33473;-92
2023/08/08 06:26:01;;;;;;;0.70;0.50;;;;;;;18.09;53.96;99763.38;4452595;32;33694;-93
2023/08/08 06:28:32;;;;;;;0.50;0.50;;;;;;;18.09;53.38;99768.62;4446997;32;34464;-92
2023/08/08 06:31:01;;;;;;;0.40;0.40;;;;;;;18.27;53.50;99770.47;4447342;32;33355;-91
2023/08/08 06:33:29;;;;;;;0.85;0.50;;;;;;;18.15;52.67;99771.00;4441179;32;33947;-92
2023/08/08 06:35:58;;;;;;;0.80;0.43;;;;;;;18.30;52.66;99779.97;4444506;32;34669;-92
2023/08/08 06:38:27;;;;;;;1.05;0.50;;;;;;;18.24;52.13;99778.47;4451659;32;34031;-91
2023/08/08 06:40:57;;;;;;;0.30;0.30;;;;;;;18.38;51.60;99777.00;4446892;32;34131;-91
2023/08/08 06:43:26;;;;;;;0.95;0.62;;;;;;;18.49;52.40;99770.38;4445055;32;33987;-91
2023/08/08 06:45:56;;;;;;;0.50;0.50;;;;;;;18.75;50.54;99781.50;4445068;32;34439;-92
2023/08/08 06:48:25;;;;;;;0.40;0.40;;;;;;;18.46;51.29;99769.62;4448485;32;33813;-93
2023/08/08 06:50:55;;;;;;;0.40;0.40;;;;;;;18.38;51.10;99772.59;4442486;32;33386;-89
2023/08/08 06:53:23;;;;;;;1.33;0.70;;;;;;;18.29;51.80;99781.75;4437095;32;34491;-92
2023/08/08 06:55:52;;;;;;;0.55;0.45;;;;;;;18.00;51.88;99771.63;4442741;32;34343;-93
2023/08/08 06:58:21;;;;;;;1.12;0.62;;;;;;;18.47;50.58;99779.22;4442055;32;32205;-91
2023/08/08 07:00:51;;;;;;;0.50;0.50;;;;;;;18.30;51.34;99778.19;4451637;32;33299;-91
2023/08/08 07:03:21;;;;;;;0.60;0.45;;;;;;;18.40;51.39;99778.66;4441716;32;33520;-91
2023/08/08 07:05:51;;;;;;;0.50;0.50;;;;;;;18.53;50.58;99778.94;4438504;32;33159;-91
2023/08/08 07:08:21;;;;;;;0.37;0.37;;;;;;;18.31;51.24;99786.91;4444807;32;33050;-90
2023/08/08 07:10:50;;;;;;;0.30;0.30;;;;;;;18.42;50.99;99791.72;4449068;32;32857;-89
2023/08/08 07:13:20;;;;;;;0.47;0.47;;;;;;;18.55;51.11;99793.72;4446435;32;34525;-93
2023/08/08 07:15:49;;;;;;;1.85;1.73;;;;;;;18.75;50.25;99787.59;4431366;32;33053;-92
2023/08/08 07:18:18;;;;;;;0.80;0.50;;;;;;;18.99;50.04;99792.66;4440315;32;33405;-93
2023/08/08 07:20:49;;;;;;;0.82;0.30;;;;;;;18.99;49.98;99795.28;4443444;32;33814;-92
2023/08/08 07:23:18;;;;;;;0.55;0.55;;;;;;;19.10;48.63;99798.28;4450632;32;33544;-90
2023/08/08 07:25:47;;;;;;;1.27;0.95;;;;;;;19.33;48.85;99801.59;4441981;32;33585;-91
2023/08/08 07:28:19;;;;;;;0.55;0.45;;;;;;;18.79;49.41;99803.25;4444367;32;33497;-93
2023/08/08 07:30:48;;;;;;;1.65;0.60;;;;;;;19.01;49.36;99800.47;4447686;32;34000;-91
2023/08/08 07:33:16;;;;;;;0.40;0.40;;;;;;;19.02;49.35;99804.84;4451359;32;33757;-90
2023/08/08 07:36:05;;;;;;;0.60;0.60;;;;;;;19.42;48.53;99816.94;4436636;32;34778;-91
2023/08/08 07:38:34;;;;;;;0.40;0.40;;;;;;;19.29;49.30;99810.59;4441428;32;32466;-92
2023/08/08 07:41:03;;;;;;;0.47;0.30;;;;;;;19.31;48.02;99814.00;4437329;32;33106;-90
2023/08/08 07:43:35;;;;;;;0.70;0.50;;;;;;;19.53;47.95;99821.72;4441502;32;34565;-92
2023/08/08 07:46:04;;;;;;;0.82;0.73;;;;;;;19.49;47.39;99825.41;4446682;32;33978;-91
2023/08/08 07:48:33;;;;;;;1.48;1.37;;;;;;;19.29;48.40;99819.31;4441858;32;34331;-90
2023/08/08 07:51:01;;;;;;;0.55;0.55;;;;;;;19.67;47.49;99816.63;4442916;32;32433;-92
2023/08/08 07:53:32;;;;;;;1.70;0.50;;;;;;;19.83;46.92;99816.75;4438941;32;33312;-91
2023/08/08 07:56:00;;;;;;;0.45;0.40;;;;;;;19.82;47.96;99820.34;4450541;32;32608;-91
2023/08/08 07:58:29;;;;;;;0.45;0.45;;;;;;;19.89;46.69;99820.88;4446033;32;33390;-90
2023/08/08 08:00:59;;;;;;;0.82;0.45;;;;;;;19.73;47.73;99808.47;4445898;32;34011;-90
2023/08/08 08:03:31;;;;;;;0.43;0.43;;;;;;;19.97;47.65;99811.66;4439564;32;33544;-92
2023/08/08 08:06:00;;;;;;;0.60;0.50;;;;;;;20.11;47.18;99807.50;4444986;32;34379;-91
2023/08/08 08:08:28;;;;;;;0.40;0.40;;;;;;;20.31;46.55;99811.75;4448236;32;34356;-90
2023/08/08 08:10:59;;;;;;;0.62;0.55;;;;;;;20.19;46.27;99815.84;4430632;32;34003;-92
2023/08/08 08:13:27;;;;;;;0.28;0.28;;;;;;;20.19;45.94;99821.97;4428778;32;34321;-90
2023/08/08 08:15:56;;;;;;;0.40;0.40;;;;;;;20.04;45.99;99817.47;4429847;32;33502;-90
2023/08/08 08:18:25;;;;;;;1.25;0.60;;;;;;;20.13;46.87;99824.06;4435243;32;34035;-91
2023/08/08 08:20:54;;;;;;;0.98;0.62;;;;;;;20.52;46.28;99820.31;4429663;32;32649;-91
2023/08/08 08:23:23;;;;;;;0.50;0.43;;;;;;;20.89;44.93;99822.72;4430917;32;33232;-91
2023/08/08 08:25:52;;;;;;;0.60;0.40;;;;;;;21.15;43.48;99814.34;4439334;32;34504;-91
2023/08/08 08:28:26;;;;;;;0.57;0.40;;;;;;;20.85;44.45;99815.94;4449833;32;33714;-92
2023/08/08 08:30:55;;;;;;;0.40;0.30;;;;;;;21.09;44.02;99829.59;4451887;32;33267;-90
2023/08/08 08:33:26;;;;;;;;;;;;;;;20.79;44.15;99832.06;4445870;32;34357;-90
2023/08/08 08:35:55;;;;;;;0.25;0.25;;;;;;;20.97;43.66;99819.69;4440070;32;33445;-90
2023/08/08 08:38:24;;;;;;;0.60;0.50;;;;;;;20.81;44.32;99824.09;4447654;32;33896;-91
2023/08/08 08:40:54;;;;;;;0.32;0.32;;;;;;;20.77;43.70;99827.81;4452778;32;33090;-91
2023/08/08 08:43:23;;;;;;;;;;;;;;;21.15;43.72;99836.31;4447668;32;33390;-93
2023/08/08 08:45:54;;;;;;;0.30;0.30;;;;;;;21.22;42.81;99831.56;4447268;32;33868;-92
2023/08/08 08:48:23;;;;;;;0.30;0.30;;;;;;;21.16;42.29;99835.34;4447886;32;33304;-92
2023/08/08 08:50:52;;;;;;;0.40;0.40;;;;;;;20.93;42.64;99827.84;4451094;32;32861;-92
2023/08/08 08:53:22;;;;;;;0.55;0.35;;;;;;;20.74;43.64;99828.81;4452765;32;33074;-91
2023/08/08 08:55:51;;;;;;;0.30;0.30;;;;;;;20.67;44.82;99817.75;4446518;32;33843;-91
2023/08/08 08:58:20;;;;;;;0.55;0.30;;;;;;;21.07;43.52;99827.97;4449878;32;34434;-90
2023/08/08 09:00:49;;;;;;;0.40;0.40;;;;;;;20.97;43.21;99819.69;4446830;32;33307;-94
2023/08/08 09:03:20;;;;;;;0.75;0.52;;;;;;;21.10;43.37;99825.16;4450124;32;33089;-90
2023/08/08 09:05:49;;;;;;;0.45;0.40;;;;;;;20.73;43.43;99823.63;4431360;32;33902;-92
2023/08/08 09:08:18;;;;;;;0.40;0.40;;;;;;;21.07;43.04;99827.97;4434986;32;33232;-92
2023/08/08 09:10:47;;;;;;;0.30;0.30;;;;;;;20.96;43.19;99822.41;4447056;32;33930;-92
2023/08/08 09:13:16;;;;;;;0.52;0.30;;;;;;;21.19;43.45;99822.03;4455356;32;34029;-91
2023/08/08 09:15:48;;;;;;;0.45;0.40;;;;;;;21.08;43.57;99821.75;4446306;32;33731;-91
2023/08/08 09:18:17;;;;;;;0.40;0.40;;;;;;;21.18;43.27;99819.44;4436326;32;33739;-92
2023/08/08 09:20:49;;;;;;;0.85;0.40;;;;;;;21.40;42.95;99827.91;4444975;32;33887;-93
2023/08/08 09:23:18;;;;;;;0.45;0.35;;;;;;;21.49;41.74;99822.12;4446903;32;33935;-90
2023/08/08 09:25:47;;;;;;;0.30;0.30;;;;;;;21.10;42.98;99833.06;4441460;32;33599;-92
2023/08/08 09:28:16;;;;;;;0.52;0.50;;;;;;;21.34;42.76;99832.66;4443792;32;33099;-90
2023/08/08 09:30:45;;;;;;;0.20;0.20;;;;;;;21.21;44.19;99832.47;4446966;32;32816;-91
2023/08/08 09:33:14;;;;;;;0.30;0.30;;;;;;;21.39;43.59;99825.34;4446720;32;34414;-92
2023/08/08 09:35:42;;;;;;;0.55;0.43;;;;;;;20.87;44.52;99840.41;4451952;32;33656;-94
2023/08/08 09:38:12;;;;;;;0.73;0.73;;;;;;;21.05;43.18;99833.31;4439953;32;34035;-91
2023/08/08 09:40:41;;;;;;;1.08;0.77;;;;;;;20.91;44.95;99835.84;4438235;32;33110;-92
2023/08/08 09:43:10;;;;;;;2.78;1.23;;;;;;;21.09;44.88;99834.84;4446377;32;33855;-93
2023/08/08 09:45:41;;;;;;;0.30;0.30;;;;;;;21.48;42.58;99827.47;4446391;32;33702;-91
2023/08/08 09:48:10;;;;;;;0.55;0.40;;;;;;;21.47;42.73;99825.78;4449221;32;34042;-91
2023/08/08 09:50:41;;;;;;;0.37;0.37;;;;;;;21.76;42.65;99825.91;4431821;32;33438;-91
2023/08/08 09:53:10;;;;;;;0.50;0.50;;;;;;;21.97;41.10;99819.41;4431811;32;33780;-94
2023/08/08 09:55:40;;;;;;;0.45;0.40;;;;;;;21.91;39.86;99828.50;4431499;32;33579;-90
2023/08/08 09:58:09;;;;;;;0.40;0.40;;;;;;;21.87;40.38;99820.88;4436066;32;33050;-90
2023/08/08 10:00:38;;;;;;;0.22;0.22;;;;;;;22.02;41.10;99822.62;4431757;32;34053;-89
2023/08/08 10:03:07;;;;;;;0.30;0.30;;;;;;;22.17;41.06;99832.28;4430284;32;33297;-90
2023/08/08 10:05:37;;;;;;;0.55;0.40;;;;;;;21.81;40.83;99827.34;4436970;32;34018;-91
2023/08/08 10:08:06;;;;;;;0.50;0.30;;;;;;;21.47;41.69;99831.06;4445678;32;33448;-90
2023/08/08 10:10:35;;;;;;;0.40;0.40;;;;;;;21.51;42.28;99829.97;4451332;32;32975;-89
2023/08/08 10:13:06;;;;;;;0.52;0.52;;;;;;;21.33;42.21;99821.22;4452245;32;33577;-89
2023/08/08 10:15:37;;;;;;;;;;;;;;;21.74;41.48;99818.91;4447086;32;33970;-89
2023/08/08 10:18:07;;;;;;;0.30;0.30;;;;;;;21.84;41.55;99813.13;4431686;32;34704;-89
2023/08/08 10:20:37;;;;;;;0.52;0.30;;;;;;;22.14;40.98;99816.63;4437139;32;33664;-88
2023/08/08 10:23:07;;;;;;;1.65;0.30;;;;;;;22.17;40.66;99815.56;4431364;32;35605;-89
2023/08/08 10:25:36;;;;;;;0.77;0.43;;;;;;;22.12;40.03;99809.72;4431185;32;33634;-89
2023/08/08 10:28:12;;;;;;;0.45;0.45;;;;;;;22.39;40.86;99811.69;4431400;32;33818;-88
2023/08/08 10:30:55;;;;;;;1.23;0.40;;;;;;;22.49;39.20;99812.84;4431692;32;33305;-91
2023/08/08 10:33:25;;;;;;;1.00;0.50;;;;;;;22.48;40.95;99806.69;4436644;32;33592;-88
2023/08/08 10:36:02;;;;;;;0.37;0.37;;;;;;;22.25;39.30;99808.06;4431041;32;33004;-89
2023/08/08 10:38:41;;;;;;;0.80;0.30;;;;;;;22.37;39.95;99809.13;4432585;32;34484;-88
2023/08/08 10:41:12;;;;;;;0.20;0.20;;;;;;;22.58;39.55;99807.84;4431331;32;34001;-90
2023/08/08 10:43:50;;;;;;;1.37;0.35;;;;;;;22.62;38.63;99805.03;4431372;32;33138;-89
2023/08/08 10:46:27;;;;;;;0.68;0.57;;;;;;;22.87;39.70;99809.63;4439171;32;34146;-88
2023/08/08 10:48:59;;;;;;;0.30;0.30;;;;;;;22.75;38.89;99803.31;4447160;32;33080;-90
2023/08/08 10:51:34;;;;;;;0.82;0.30;;;;;;;22.96;38.63;99806.41;4447451;32;34011;-92
2023/08/08 10:54:05;;;;;;;0.60;0.40;;;;;;;23.06;38.30;99812.00;4446677;32;33110;-88
2023/08/08 10:56:36;;;;;;;0.45;0.30;;;;;;;22.95;37.56;99805.56;4446663;32;34542;-89
2023/08/08 10:59:15;;;;;;;0.35;0.30;;;;;;;22.84;39.11;99813.31;4451851;32;33058;-89
2023/08/08 11:01:47;;;;;;;0.30;0.30;;;;;;;22.41;39.00;99799.25;4446050;32;32835;-88
2023/08/08 11:04:17;;;;;;;0.30;0.30;;;;;;;22.77;38.31;99801.41;4431144;32;33694;-89
2023/08/08 11:06:46;;;;;;;1.80;0.40;;;;;;;22.89;37.60;99798.00;4430800;32;35632;-90
2023/08/08 11:09:15;;;;;;;0.45;0.30;;;;;;;22.85;37.72;99800.94;4431490;32;33808;-87
2023/08/08 11:11:46;;;;;;;0.85;0.37;;;;;;;22.94;38.27;99801.22;4436691;32;33286;-88
2023/08/08 11:14:17;;;;;;;0.28;0.28;;;;;;;23.27;38.32;99799.19;4431005;32;33583;-89
2023/08/08 11:16:50;;;;;;;0.40;0.30;;;;;;;23.16;37.29;99798.09;4436704;32;33219;-88
2023/08/08 11:19:20;;;;;;;0.40;0.40;;;;;;;23.19;37.97;99795.25;4431318;32;33787;-91
2023/08/08 11:21:49;;;;;;;0.40;0.40;;;;;;;23.14;38.80;99799.97;4441272;32;33101;-90
2023/08/08 11:24:18;;;;;;;0.22;0.20;;;;;;;22.90;38.24;99796.22;4431958;32;33726;-88
2023/08/08 11:26:47;;;;;;;0.30;0.30;;;;;;;23.22;38.80;99791.56;4431093;32;33708;-88
2023/08/08 11:29:18;;;;;;;0.70;0.52;;;;;;;23.11;37.50;99789.59;4431179;32;34055;-89
2023/08/08 11:31:49;;;;;;;0.30;0.30;;;;;;;22.86;38.51;99795.56;4416760;32;32172;-88
2023/08/08 11:34:18;;;;;;;;;;;;;;;22.90;38.03;99786.47;4436793;32;35063;-90
2023/08/08 11:36:48;;;;;;;0.35;0.35;;;;;;;23.06;39.14;99793.50;4431158;32;34210;-90
2023/08/08 11:39:18;;;;;;;0.77;0.40;;;;;;;23.38;37.76;99786.97;4433765;32;34590;-89
2023/08/08 11:41:47;;;;;;;0.37;0.32;;;;;;;23.78;36.66;99783.56;4433451;32;32644;-90
2023/08/08 11:44:16;;;;;;;0.75;0.30;;;;;;;23.96;35.57;99776.16;4451511;32;33896;-88
2023/08/08 11:46:47;;;;;;;0.47;0.40;;;;;;;24.08;36.65;99772.69;4445839;32;34474;-89